Manuela E — EAVH — position and weather

sailwx.info

Track history (hours):
 
Tides and Currents Weather Stations Pressure Air Temp Water Temp Dewpoint Dewpoint Depression Visibility Wind Speed Wind Dir Waves Ship Positions

Manuela E

Last reported at 2017-Sep-20 14:00 UTC. Time now 2017-Sep-21 05:23 UTC.
Position N 35°47' W 009°29'.

Length 100 m; draft 6.9 m.

Type: Cargo ship. MMSI: 225365000.

Date/timePositionNaut miles runAvg speedWind from/ knotsBaromVisibWave heightAir tempDewpointWater temp
2017-Sep-20 14:00N 35°47' W 009°29'2310.5
2017-Sep-20 11:49N 36°09' W 009°36'1410.7
2017-Sep-20 10:30N 36°23' W 009°40'1210.7
2017-Sep-20 09:23N 36°34' W 009°44'511.1
2017-Sep-20 08:55N 36°39' W 009°45'611.3
2017-Sep-20 08:23N 36°45' W 009°47'911.8
2017-Sep-20 07:39N 36°54' W 009°49'1511.7
2017-Sep-20 06:20N 37°09' W 009°51'1610.4
2017-Sep-20 04:50N 37°25' W 009°53'410.8
2017-Sep-20 04:29N 37°28' W 009°54'510.9
2017-Sep-20 04:00N 37°34' W 009°54'510.5
2017-Sep-20 03:30N 37°39' W 009°55'1210.1
2017-Sep-20 02:16N 37°51' W 009°57'410.1
2017-Sep-20 01:53N 37°55' W 009°58'410.4
2017-Sep-20 01:30N 37°59' W 009°58'510.5
2017-Sep-20 01:00N 38°04' W 009°59'710.7
2017-Sep-20 00:22N 38°11' W 010°00'510.3
2017-Sep-19 23:54N 38°16' W 010°01'410.4
2017-Sep-19 23:30N 38°20' W 010°02'611.2
2017-Sep-19 23:00N 38°25' W 010°02'611.5
2017-Sep-19 22:30N 38°31' W 010°03'612.0
2017-Sep-19 22:00N 38°37' W 010°04'611.8
2017-Sep-19 21:30N 38°43' W 010°05'611.4
2017-Sep-19 21:00N 38°49' W 010°05'611.2
2017-Sep-19 20:30N 38°54' W 010°05'611.6
2017-Sep-19 20:00N 38°60' W 010°05'611.7
2017-Sep-19 19:30N 39°06' W 010°05'611.5
2017-Sep-19 19:00N 39°12' W 010°05'811.4
2017-Sep-19 18:16N 39°20' W 010°05'311.2
2017-Sep-19 18:00N 39°23' W 010°05'811.5
2017-Sep-19 17:20N 39°31' W 010°05'511.2
2017-Sep-19 16:56N 39°35' W 010°05'2811.4
2017-Sep-19 14:30N 40°03' W 010°05'  
2017-Sep-12 01:10N 40°03' W 009°33'410.2
2017-Sep-12 00:49N 39°60' W 009°34'1010.2
2017-Sep-11 23:48N 39°50' W 009°37'310.0
2017-Sep-11 23:27N 39°46' W 009°38'510.2
2017-Sep-11 23:00N 39°42' W 009°40'610.1
2017-Sep-11 22:24N 39°36' W 009°42'410.0
2017-Sep-11 22:00N 39°32' W 009°43'710.1
2017-Sep-11 21:20N 39°25' W 009°44'3 9.8
2017-Sep-11 20:59N 39°22' W 009°45'5 9.9
2017-Sep-11 20:30N 39°17' W 009°46'510.0
2017-Sep-11 20:00N 39°12' W 009°46'510.3
2017-Sep-11 19:30N 39°07' W 009°47'510.2
2017-Sep-11 19:00N 39°02' W 009°48'5 9.9
2017-Sep-11 18:30N 38°57' W 009°49'510.2
2017-Sep-11 18:00N 38°52' W 009°50'510.4
2017-Sep-11 17:30N 38°47' W 009°50'510.1
2017-Sep-11 17:00N 38°42' W 009°49'510.0
2017-Sep-11 16:30N 38°37' W 009°48'5 9.8
2017-Sep-11 16:00N 38°32' W 009°47'5 9.8
2017-Sep-11 15:30N 38°27' W 009°45'5 9.9
2017-Sep-11 15:00N 38°23' W 009°44'510.0
2017-Sep-11 14:30N 38°18' W 009°42'5 9.9
2017-Sep-11 14:00N 38°13' W 009°41'5 9.8
2017-Sep-11 13:30N 38°08' W 009°40'510.1
2017-Sep-11 13:00N 38°03' W 009°38'510.1
2017-Sep-11 12:30N 37°58' W 009°37'510.0
2017-Sep-11 12:00N 37°53' W 009°35'510.0
2017-Sep-11 11:30N 37°48' W 009°34'5 9.7
2017-Sep-11 11:00N 37°44' W 009°33'5 9.5
2017-Sep-11 10:30N 37°39' W 009°32'1710.1
2017-Sep-11 08:47N 37°22' W 009°27'1710.3
2017-Sep-11 07:05N 37°05' W 009°21'110.4
2017-Sep-11 06:58N 37°04' W 009°21'510.3
2017-Sep-11 06:29N 36°59' W 009°20'510.2
2017-Sep-11 05:59N 36°54' W 009°18'5 9.6
2017-Sep-11 05:30N 36°51' W 009°14'510.0
2017-Sep-11 05:00N 36°47' W 009°10'6 9.6
2017-Sep-11 04:23N 36°44' W 009°04'4 9.8
2017-Sep-11 04:00N 36°43' W 008°59'510.5
2017-Sep-11 03:30N 36°42' W 008°53'510.1
2017-Sep-11 03:00N 36°40' W 008°47'510.4
2017-Sep-11 02:30N 36°38' W 008°41'510.6
2017-Sep-11 02:00N 36°37' W 008°34'810.9
2017-Sep-11 01:18N 36°34' W 008°25'310.9
2017-Sep-11 01:00N 36°33' W 008°22'610.8
2017-Sep-11 00:29N 36°31' W 008°15'611.1
2017-Sep-11 00:00N 36°29' W 008°09'611.3
2017-Sep-10 23:30N 36°28' W 008°02'1611.0
2017-Sep-10 22:00N 36°23' W 007°43'610.8
2017-Sep-10 21:29N 36°21' W 007°36'510.8
2017-Sep-10 20:59N 36°19' W 007°30'510.6
2017-Sep-10 20:29N 36°17' W 007°23'  
Track history (hours):
 
Tides and Currents Weather Stations Pressure Air Temp Water Temp Dewpoint Dewpoint Depression Visibility Wind Speed Wind Dir Waves Ship Positions

Manuela E

Last reported at 2017-Sep-20 14:00 UTC. Time now 2017-Sep-21 05:23 UTC.
Position N 35°47' W 009°29'.

Length 100 m; draft 6.9 m.

Type: Cargo ship. MMSI: 225365000.

Date/timePositionNaut miles runAvg speedWind from/ knotsBaromVisibWave heightAir tempDewpointWater temp
2017-Sep-20 14:00N 35°47' W 009°29'2310.5
2017-Sep-20 11:49N 36°09' W 009°36'1410.7
2017-Sep-20 10:30N 36°23' W 009°40'1210.7
2017-Sep-20 09:23N 36°34' W 009°44'511.1
2017-Sep-20 08:55N 36°39' W 009°45'611.3
2017-Sep-20 08:23N 36°45' W 009°47'911.8
2017-Sep-20 07:39N 36°54' W 009°49'1511.7
2017-Sep-20 06:20N 37°09' W 009°51'1610.4
2017-Sep-20 04:50N 37°25' W 009°53'410.8
2017-Sep-20 04:29N 37°28' W 009°54'510.9
2017-Sep-20 04:00N 37°34' W 009°54'510.5
2017-Sep-20 03:30N 37°39' W 009°55'1210.1
2017-Sep-20 02:16N 37°51' W 009°57'410.1
2017-Sep-20 01:53N 37°55' W 009°58'410.4
2017-Sep-20 01:30N 37°59' W 009°58'510.5
2017-Sep-20 01:00N 38°04' W 009°59'710.7
2017-Sep-20 00:22N 38°11' W 010°00'510.3
2017-Sep-19 23:54N 38°16' W 010°01'410.4
2017-Sep-19 23:30N 38°20' W 010°02'611.2
2017-Sep-19 23:00N 38°25' W 010°02'611.5
2017-Sep-19 22:30N 38°31' W 010°03'612.0
2017-Sep-19 22:00N 38°37' W 010°04'611.8
2017-Sep-19 21:30N 38°43' W 010°05'611.4
2017-Sep-19 21:00N 38°49' W 010°05'611.2
2017-Sep-19 20:30N 38°54' W 010°05'611.6
2017-Sep-19 20:00N 38°60' W 010°05'611.7
2017-Sep-19 19:30N 39°06' W 010°05'611.5
2017-Sep-19 19:00N 39°12' W 010°05'811.4
2017-Sep-19 18:16N 39°20' W 010°05'311.2
2017-Sep-19 18:00N 39°23' W 010°05'811.5
2017-Sep-19 17:20N 39°31' W 010°05'511.2
2017-Sep-19 16:56N 39°35' W 010°05'2811.4
2017-Sep-19 14:30N 40°03' W 010°05'  
2017-Sep-12 01:10N 40°03' W 009°33'410.2
2017-Sep-12 00:49N 39°60' W 009°34'1010.2
2017-Sep-11 23:48N 39°50' W 009°37'310.0
2017-Sep-11 23:27N 39°46' W 009°38'510.2
2017-Sep-11 23:00N 39°42' W 009°40'610.1
2017-Sep-11 22:24N 39°36' W 009°42'410.0
2017-Sep-11 22:00N 39°32' W 009°43'710.1
2017-Sep-11 21:20N 39°25' W 009°44'3 9.8
2017-Sep-11 20:59N 39°22' W 009°45'5 9.9
2017-Sep-11 20:30N 39°17' W 009°46'510.0
2017-Sep-11 20:00N 39°12' W 009°46'510.3
2017-Sep-11 19:30N 39°07' W 009°47'510.2
2017-Sep-11 19:00N 39°02' W 009°48'5 9.9
2017-Sep-11 18:30N 38°57' W 009°49'510.2
2017-Sep-11 18:00N 38°52' W 009°50'510.4
2017-Sep-11 17:30N 38°47' W 009°50'510.1
2017-Sep-11 17:00N 38°42' W 009°49'510.0
2017-Sep-11 16:30N 38°37' W 009°48'5 9.8
2017-Sep-11 16:00N 38°32' W 009°47'5 9.8
2017-Sep-11 15:30N 38°27' W 009°45'5 9.9
2017-Sep-11 15:00N 38°23' W 009°44'510.0
2017-Sep-11 14:30N 38°18' W 009°42'5 9.9
2017-Sep-11 14:00N 38°13' W 009°41'5 9.8
2017-Sep-11 13:30N 38°08' W 009°40'510.1
2017-Sep-11 13:00N 38°03' W 009°38'510.1
2017-Sep-11 12:30N 37°58' W 009°37'510.0
2017-Sep-11 12:00N 37°53' W 009°35'510.0
2017-Sep-11 11:30N 37°48' W 009°34'5 9.7
2017-Sep-11 11:00N 37°44' W 009°33'5 9.5
2017-Sep-11 10:30N 37°39' W 009°32'1710.1
2017-Sep-11 08:47N 37°22' W 009°27'1710.3
2017-Sep-11 07:05N 37°05' W 009°21'110.4
2017-Sep-11 06:58N 37°04' W 009°21'510.3
2017-Sep-11 06:29N 36°59' W 009°20'510.2
2017-Sep-11 05:59N 36°54' W 009°18'5 9.6
2017-Sep-11 05:30N 36°51' W 009°14'510.0
2017-Sep-11 05:00N 36°47' W 009°10'6 9.6
2017-Sep-11 04:23N 36°44' W 009°04'4 9.8
2017-Sep-11 04:00N 36°43' W 008°59'510.5
2017-Sep-11 03:30N 36°42' W 008°53'510.1
2017-Sep-11 03:00N 36°40' W 008°47'510.4
2017-Sep-11 02:30N 36°38' W 008°41'510.6
2017-Sep-11 02:00N 36°37' W 008°34'810.9
2017-Sep-11 01:18N 36°34' W 008°25'310.9
2017-Sep-11 01:00N 36°33' W 008°22'610.8
2017-Sep-11 00:29N 36°31' W 008°15'611.1
2017-Sep-11 00:00N 36°29' W 008°09'611.3
2017-Sep-10 23:30N 36°28' W 008°02'1611.0
2017-Sep-10 22:00N 36°23' W 007°43'610.8
2017-Sep-10 21:29N 36°21' W 007°36'510.8
2017-Sep-10 20:59N 36°19' W 007°30'510.6
2017-Sep-10 20:29N 36°17' W 007°23'  

Dump ship's entire track history